LRDK1: Arkansas River nr Larned, KS

Data processed at Tue May 21 2019 23:50


All information presented herein is the property of the government of the United States of America and may be revised or deleted at any time without prior notice.
Dissemination of this information without the expressed written consent of the Public Affairs Office, Tulsa District U.S. Army Corps of Engineers is strictly prohibited.
These data are gathered electronically and, as presented, have not undergone any form of quality control. These data are not guaranteed to be valid or correct.
Go to home page.
Go to station list.
Go to home page.

Upstream stations:

Downstream station:
Previous Day
Next Day
Current Day
    
SHEF ID:       LRDK1     ARKANSAS R NR LARNED, KS
STATION TYPE:  

               PRECIP     STAGE  STAGE(2)  RIV-FLOW  BAT-LOAD
                   in        ft        ft       cfs      volt
              Ccp-Rev   Ccp-Rev   Ccp-Rev   Ccp-Rev   Ccp-Rev
(US/Central)
05/21 00:00      0.00      6.08      ----       220     12.65
05/21 01:00      0.00      6.10      ----       224     12.65
05/21 02:00      0.00      6.14      ----       232     12.65
05/21 03:00      0.00      6.23      ----       250     12.65
05/21 04:00      0.04      6.33      ----       271     12.65
05/21 05:00      0.25      6.46      ----       299     12.65
05/21 06:00      0.14      6.59      ----       329     12.65
05/21 07:00      0.01      6.74      ----       365     12.65
05/21 08:00      0.04      6.91      ----       408     12.65
05/21 09:00      0.00      7.13      ----       467     12.65
05/21 10:00      0.04      7.34      ----       527     12.73
05/21 11:00      0.08      7.56      ----       594     12.73
05/21 12:00      0.00      7.75      ----       655     12.97
05/21 13:00      0.49      8.03      ----       749     12.89
05/21 14:00      0.02      8.24      ----       824     13.44
05/21 15:00      0.00      8.44      ----       899     13.84
05/21 16:00      0.00      8.65      ----       981     13.84
05/21 17:00      0.00      8.86      ----      1066     13.68
05/21 18:00      0.16      9.09      ----      1163     13.53
05/21 19:00      0.28      9.33      ----      1269     13.05
05/21 20:00      0.03      9.53      ----      1360     13.13
05/21 21:00      0.00      9.70      ----      1438     12.97
05/21 22:00      0.00      9.89      ----      1527     12.97
05/21 23:00      0.00     10.07      ----      1614     12.97